Time;durP1;ratioP1;P1;durP2;ratioP2;P2;SDS_P1;SDS_P2;PMS_P1;PMS_P2;Temp;Humidity;BMP_temperature;BMP_pressure;BME280_temperature;BME280_humidity;BME280_pressure;Samples;Min_cycle;Max_cycle;Signal;HPM_P1;HPM_P2
2022/01/16 00:04:11;;;;;;;48.95;25.33;;;;;;;0.24;100.00;102315.78;4997460;28;20085;-53
2022/01/16 00:06:38;;;;;;;50.97;24.05;;;;;;;0.24;100.00;102315.78;4997123;28;20085;-53
2022/01/16 00:09:04;;;;;;;47.25;23.77;;;;;;;0.25;100.00;102312.84;4997285;28;20114;-53
2022/01/16 00:11:30;;;;;;;49.28;25.60;;;;;;;0.30;100.00;102310.38;4997091;28;20034;-52
2022/01/16 00:13:56;;;;;;;45.90;24.80;;;;;;;0.29;100.00;102313.28;4995640;28;20062;-55
2022/01/16 00:16:22;;;;;;;49.22;25.23;;;;;;;0.27;100.00;102321.66;4995933;28;20458;-51
2022/01/16 00:18:52;;;;;;;48.75;24.13;;;;;;;0.22;100.00;102318.72;4996147;28;20026;-52
2022/01/16 00:21:23;;;;;;;47.50;23.85;;;;;;;0.15;100.00;102305.06;4996566;28;20370;-55
2022/01/16 00:23:49;;;;;;;48.58;23.02;;;;;;;0.18;100.00;102317.41;4996978;28;20122;-54
2022/01/16 00:26:15;;;;;;;48.38;25.02;;;;;;;0.21;100.00;102316.16;4997063;28;20133;-55
2022/01/16 00:28:40;;;;;;;46.60;23.60;;;;;;;0.16;100.00;102314.03;4996090;28;20477;-54
2022/01/16 00:31:05;;;;;;;45.92;24.27;;;;;;;0.15;100.00;102296.88;4995968;28;20082;-54
2022/01/16 00:33:31;;;;;;;47.40;23.70;;;;;;;0.10;100.00;102293.09;4996361;28;20026;-55
2022/01/16 00:35:56;;;;;;;45.33;24.10;;;;;;;0.04;100.00;102316.50;4995957;28;20030;-54
2022/01/16 00:38:21;;;;;;;45.85;23.75;;;;;;;0.02;100.00;102307.69;4995944;28;20022;-55
2022/01/16 00:40:47;;;;;;;44.85;24.75;;;;;;;-0.01;100.00;102308.09;4996602;28;20026;-55
2022/01/16 00:43:13;;;;;;;45.70;23.77;;;;;;;-0.01;100.00;102303.47;4996538;28;20018;-53
2022/01/16 00:45:39;;;;;;;48.70;24.63;;;;;;;-0.02;100.00;102298.25;4994562;28;20436;-54
2022/01/16 00:48:05;;;;;;;51.15;26.58;;;;;;;0.00;100.00;102298.91;4996174;28;20030;-54
2022/01/16 00:50:32;;;;;;;47.70;24.90;;;;;;;-0.01;100.00;102289.88;4996302;28;20031;-53
2022/01/16 00:52:57;;;;;;;52.22;24.90;;;;;;;0.01;100.00;102308.72;4996435;28;20037;-54
2022/01/16 00:55:23;;;;;;;52.78;26.92;;;;;;;0.02;100.00;102310.41;4995781;28;20023;-52
2022/01/16 00:57:49;;;;;;;47.67;24.23;;;;;;;0.03;100.00;102289.50;4996302;28;20058;-53
2022/01/16 01:00:15;;;;;;;54.35;25.10;;;;;;;0.04;100.00;102270.22;4995262;28;20042;-54
2022/01/16 01:02:40;;;;;;;51.83;25.48;;;;;;;0.04;100.00;102251.19;4994650;28;20061;-53
2022/01/16 01:05:07;;;;;;;52.35;27.08;;;;;;;0.04;100.00;102259.34;4995836;28;20085;-54
2022/01/16 01:07:33;;;;;;;54.15;26.80;;;;;;;0.06;100.00;102260.00;4995487;28;20109;-55
2022/01/16 01:09:58;;;;;;;52.65;25.45;;;;;;;0.08;100.00;102255.19;4996051;28;20560;-55
2022/01/16 01:12:30;;;;;;;51.60;25.95;;;;;;;0.10;100.00;102282.19;4996159;28;20477;-55
2022/01/16 01:15:10;;;;;;;55.20;25.63;;;;;;;0.10;100.00;102284.91;4995457;28;20029;-52
2022/01/16 01:17:45;;;;;;;55.55;26.73;;;;;;;0.09;100.00;102286.81;4995107;28;20029;-52
2022/01/16 01:20:14;;;;;;;53.35;26.73;;;;;;;0.06;100.00;102276.31;4995805;28;20030;-51
2022/01/16 01:22:39;;;;;;;56.60;24.58;;;;;;;0.06;100.00;102279.03;4995470;28;20030;-52
2022/01/16 01:25:05;;;;;;;52.55;25.58;;;;;;;0.11;100.00;102248.50;4995182;28;20029;-53
2022/01/16 01:27:33;;;;;;;52.45;27.33;;;;;;;0.13;100.00;102260.03;4995795;28;20035;-55
2022/01/16 01:30:03;;;;;;;58.58;26.95;;;;;;;0.12;100.00;102270.06;4995693;28;20024;-56
2022/01/16 01:32:30;;;;;;;55.58;26.33;;;;;;;0.15;100.00;102257.94;4995068;28;20166;-55
2022/01/16 01:34:55;;;;;;;57.33;25.52;;;;;;;0.20;100.00;102263.63;4994467;28;20481;-55
2022/01/16 01:37:20;;;;;;;55.90;26.73;;;;;;;0.19;100.00;102240.16;4995462;28;20037;-55
2022/01/16 01:39:46;;;;;;;56.25;26.55;;;;;;;0.20;100.00;102202.88;4995351;28;20026;-55
2022/01/16 01:42:12;;;;;;;52.90;25.90;;;;;;;0.22;100.00;102189.94;4995359;28;20026;-56
2022/01/16 01:52:54;;;;;;;59.00;27.17;;;;;;;0.25;100.00;102228.47;4995194;28;20045;-53
2022/01/16 01:55:19;;;;;;;59.22;25.65;;;;;;;0.31;100.00;102243.16;4994511;28;20030;-53
2022/01/16 01:57:45;;;;;;;60.88;26.20;;;;;;;0.32;100.00;102244.81;4994931;28;20061;-54
2022/01/16 02:00:17;;;;;;;57.50;28.33;;;;;;;0.35;100.00;102268.94;4994840;28;20026;-55
2022/01/16 02:05:20;;;;;;;53.17;25.58;;;;;;;0.38;100.00;102276.69;4994759;28;20125;-53
2022/01/16 02:07:46;;;;;;;49.45;26.38;;;;;;;0.38;100.00;102278.56;4994494;28;20490;-51
2022/01/16 02:10:12;;;;;;;55.38;24.40;;;;;;;0.42;100.00;102277.13;4994752;28;20042;-54
2022/01/16 02:12:42;;;;;;;58.03;28.15;;;;;;;0.41;100.00;102262.66;4994406;28;20479;-53
2022/01/16 02:15:32;;;;;;;57.40;24.63;;;;;;;0.46;100.00;102264.78;4994009;28;20032;-50
2022/01/16 02:31:38;;;;;;;57.20;26.45;;;;;;;0.34;100.00;102289.03;4994480;28;19921;-50
2022/01/16 02:36:50;;;;;;;;;;;;;;;0.41;100.00;102291.78;4995076;28;20045;-54
2022/01/16 02:39:16;;;;;;;58.83;25.73;;;;;;;0.45;100.00;102298.50;4993879;28;19914;-54
2022/01/16 02:41:44;;;;;;;62.22;27.45;;;;;;;0.42;100.00;102296.19;4994455;28;20081;-54
2022/01/16 02:44:31;;;;;;;60.00;29.02;;;;;;;0.39;100.00;102285.69;4994156;28;20067;-52
2022/01/16 02:46:58;;;;;;;59.85;28.55;;;;;;;0.35;100.00;102288.00;4994312;28;20043;-55
2022/01/16 02:49:24;;;;;;;57.10;27.88;;;;;;;0.29;100.00;102264.28;4993735;28;20030;-52
2022/01/16 02:51:52;;;;;;;62.63;28.63;;;;;;;0.34;100.00;102261.81;4993616;28;20154;-52
2022/01/16 02:54:18;;;;;;;58.80;28.42;;;;;;;0.32;100.00;102253.00;4993826;28;20524;-51
2022/01/16 02:56:45;;;;;;;61.83;29.27;;;;;;;0.28;100.00;102258.00;4993249;28;20062;-53
2022/01/16 02:59:11;;;;;;;66.50;31.20;;;;;;;0.24;100.00;102243.09;4993881;28;20046;-53
2022/01/16 03:01:36;;;;;;;74.85;31.45;;;;;;;0.18;100.00;102248.53;4993631;28;20034;-55
2022/01/16 03:04:01;;;;;;;64.25;29.23;;;;;;;0.18;100.00;102245.81;4993574;28;20169;-52
2022/01/16 03:06:28;;;;;;;68.32;29.42;;;;;;;0.20;100.00;102239.13;4993643;28;20121;-55
2022/01/16 03:08:53;;;;;;;63.28;28.70;;;;;;;0.20;100.00;102233.69;4993571;28;20026;-52
2022/01/16 03:11:35;;;;;;;63.10;29.77;;;;;;;0.16;100.00;102229.69;4993237;28;20359;-53
2022/01/16 03:14:05;;;;;;;62.75;29.90;;;;;;;0.09;100.00;102226.09;4993057;28;20078;-55
2022/01/16 03:16:31;;;;;;;61.63;28.85;;;;;;;0.05;100.00;102224.84;4992722;28;20038;-50
2022/01/16 03:24:27;;;;;;;58.97;26.42;;;;;;;-0.03;100.00;102223.09;4993849;28;20041;-54
2022/01/16 03:26:56;;;;;;;59.80;28.20;;;;;;;-0.07;100.00;102224.53;4992905;28;20029;-54
2022/01/16 03:29:21;;;;;;;56.42;26.80;;;;;;;0.01;100.00;102218.09;4991912;28;20025;-53
2022/01/16 03:31:47;;;;;;;62.45;29.15;;;;;;;-0.01;100.00;102219.13;4992740;28;20031;-53
2022/01/16 03:34:12;;;;;;;61.45;27.73;;;;;;;-0.01;100.00;102223.75;4993143;28;20038;-52
2022/01/16 03:36:38;;;;;;;54.70;26.50;;;;;;;-0.02;100.00;102216.63;4993353;28;20421;-53
2022/01/16 03:39:04;;;;;;;55.42;26.70;;;;;;;-0.13;100.00;102184.53;4993286;28;20101;-52
2022/01/16 03:41:30;;;;;;;63.63;30.98;;;;;;;0.00;100.00;102211.84;4993194;28;20034;-52
2022/01/16 03:44:02;;;;;;;59.05;29.20;;;;;;;-0.04;100.00;102199.66;4992915;28;20109;-51
2022/01/16 03:46:34;;;;;;;59.78;28.63;;;;;;;-0.07;100.00;102205.50;4993052;28;20037;-54
2022/01/16 03:49:00;;;;;;;64.38;30.35;;;;;;;-0.09;100.00;102194.81;4993426;28;20035;-54
2022/01/16 03:51:25;;;;;;;54.40;27.70;;;;;;;-0.06;100.00;102215.34;4991710;28;20038;-55
2022/01/16 03:53:50;;;;;;;59.85;29.35;;;;;;;-0.06;100.00;102204.44;4993347;28;20084;-53
2022/01/16 03:56:16;;;;;;;62.20;29.88;;;;;;;-0.07;100.00;102200.91;4992827;28;20521;-54
2022/01/16 03:58:41;;;;;;;62.67;30.00;;;;;;;-0.04;100.00;102214.09;4993001;28;20030;-54
2022/01/16 04:01:06;;;;;;;63.28;31.50;;;;;;;-0.04;100.00;102208.66;4993487;28;20031;-57
2022/01/16 04:03:31;;;;;;;62.75;29.70;;;;;;;-0.03;100.00;102217.66;4993507;28;20034;-56
2022/01/16 04:05:57;;;;;;;62.50;29.10;;;;;;;-0.01;100.00;102226.47;4992880;28;20109;-52
2022/01/16 04:08:22;;;;;;;63.88;31.67;;;;;;;-0.03;100.00;102218.50;4992567;28;20032;-52
2022/01/16 04:10:47;;;;;;;64.78;31.55;;;;;;;-0.03;100.00;102218.50;4992680;28;20026;-52
2022/01/16 04:13:15;;;;;;;66.22;31.15;;;;;;;-0.03;100.00;102209.50;4993250;28;20089;-55
2022/01/16 04:15:40;;;;;;;66.53;33.30;;;;;;;-0.01;100.00;102218.31;4992900;28;20223;-52
2022/01/16 04:18:06;;;;;;;59.17;30.55;;;;;;;0.01;100.00;102215.38;4992318;28;20162;-55
2022/01/16 04:20:33;;;;;;;74.30;33.33;;;;;;;0.02;100.00;102206.19;4991796;28;20035;-54
2022/01/16 04:22:58;;;;;;;68.93;32.35;;;;;;;0.02;100.00;102208.91;4993107;28;20029;-54
2022/01/16 04:25:24;;;;;;;63.65;32.17;;;;;;;0.03;100.00;102196.97;4993140;28;20113;-55
2022/01/16 04:27:49;;;;;;;67.95;32.88;;;;;;;0.04;100.00;102199.47;4992679;28;20431;-52
2022/01/16 04:30:14;;;;;;;67.03;32.67;;;;;;;0.11;100.00;102199.53;4992774;28;20018;-55
2022/01/16 04:32:40;;;;;;;63.38;32.85;;;;;;;0.11;100.00;102194.06;4992913;28;20400;-55
2022/01/16 04:35:06;;;;;;;65.40;33.88;;;;;;;0.08;100.00;102192.59;4992793;28;20109;-52
2022/01/16 04:37:31;;;;;;;59.42;31.00;;;;;;;0.08;100.00;102202.63;4994746;28;20038;-55
2022/01/16 04:40:00;;;;;;;67.18;33.35;;;;;;;0.09;100.00;102196.16;4996704;28;20477;-52
2022/01/16 04:45:15;;;;;;;65.80;32.47;;;;;;;0.11;100.00;102196.81;4967949;28;20474;-53
2022/01/16 04:47:40;;;;;;;64.13;32.15;;;;;;;0.09;100.00;102194.28;4996525;28;20053;-57
2022/01/16 04:50:07;;;;;;;62.72;32.97;;;;;;;0.08;100.00;102194.47;4996767;28;20034;-54
2022/01/16 04:52:32;;;;;;;60.90;32.72;;;;;;;0.08;100.00;102198.06;4996621;28;20454;-53
2022/01/16 04:54:57;;;;;;;61.60;31.55;;;;;;;0.11;100.00;102194.06;4996439;28;20109;-53
2022/01/16 04:57:22;;;;;;;65.43;33.00;;;;;;;0.09;100.00;102194.28;4996007;28;20062;-53
2022/01/16 04:59:48;;;;;;;60.72;31.75;;;;;;;0.11;100.00;102188.63;4996225;28;20026;-52
2022/01/16 05:02:13;;;;;;;61.88;32.92;;;;;;;0.11;100.00;102192.19;4995456;28;20022;-51
2022/01/16 05:04:38;;;;;;;63.65;33.67;;;;;;;0.12;100.00;102190.31;4995424;28;20026;-52
2022/01/16 05:07:04;;;;;;;58.67;32.25;;;;;;;0.11;100.00;102189.47;4996092;28;20073;-50
2022/01/16 05:09:29;;;;;;;64.30;34.28;;;;;;;0.11;100.00;102177.75;4996085;28;20105;-51
2022/01/16 05:11:57;;;;;;;63.92;34.03;;;;;;;0.15;100.00;102182.59;4996387;28;20033;-55
2022/01/16 05:17:06;;;;;;;;;;;;;;;0.21;100.00;102182.81;4995461;28;20037;-55
2022/01/16 05:19:32;;;;;;;63.05;32.72;;;;;;;0.19;100.00;102187.63;4995116;28;19914;-55
2022/01/16 05:21:57;;;;;;;65.05;33.13;;;;;;;0.22;100.00;102185.34;4995761;28;20033;-54
2022/01/16 05:24:24;;;;;;;67.68;35.78;;;;;;;0.23;100.00;102170.69;4995788;28;20147;-56
2022/01/16 05:26:49;;;;;;;61.40;34.95;;;;;;;0.23;100.00;102184.28;4996083;28;20058;-54
2022/01/16 05:29:15;;;;;;;62.35;34.15;;;;;;;0.25;100.00;102175.91;4995230;28;20022;-55
2022/01/16 05:31:47;;;;;;;60.97;35.60;;;;;;;0.24;100.00;102166.06;4995436;28;20084;-57
2022/01/16 05:34:17;;;;;;;66.03;36.05;;;;;;;0.25;100.00;102171.28;4994983;28;20026;-56
2022/01/16 05:36:42;;;;;;;66.22;37.92;;;;;;;0.27;100.00;102171.13;4994942;28;20023;-54
2022/01/16 05:39:08;;;;;;;61.80;35.05;;;;;;;0.32;100.00;102176.78;4994739;28;20034;-54
2022/01/16 05:41:33;;;;;;;65.63;37.28;;;;;;;0.36;100.00;102180.78;4996212;28;20080;-54
2022/01/16 05:43:58;;;;;;;60.75;35.28;;;;;;;0.41;100.00;102175.53;4995622;28;20049;-55
2022/01/16 05:46:24;;;;;;;65.63;34.88;;;;;;;0.43;100.00;102178.06;4995435;28;20109;-52
2022/01/16 05:48:50;;;;;;;67.35;38.80;;;;;;;0.37;100.00;102166.13;4994732;28;20391;-55
2022/01/16 05:51:16;;;;;;;60.25;32.80;;;;;;;0.50;100.00;102191.69;4995234;28;20161;-55
2022/01/16 05:53:44;;;;;;;59.03;34.90;;;;;;;0.47;100.00;102185.59;4995161;28;20034;-55
2022/01/16 05:56:09;;;;;;;62.90;35.10;;;;;;;0.51;100.00;102188.78;4995198;28;20054;-51
2022/01/16 05:58:35;;;;;;;64.55;34.05;;;;;;;0.56;100.00;102191.72;4994941;28;20026;-53
2022/01/16 06:01:01;;;;;;;61.42;34.00;;;;;;;0.58;100.00;102184.19;4995064;28;20047;-54
2022/01/16 06:03:26;;;;;;;57.67;32.10;;;;;;;0.62;100.00;102185.44;4994217;28;20516;-51
2022/01/16 06:05:51;;;;;;;59.28;32.72;;;;;;;0.65;100.00;102177.91;4994400;28;20537;-53
2022/01/16 06:08:17;;;;;;;57.38;33.15;;;;;;;0.69;100.00;102173.72;4994448;28;20081;-53
2022/01/16 06:10:42;;;;;;;64.63;37.33;;;;;;;0.69;100.00;102173.72;4994637;28;20034;-51
2022/01/16 06:13:08;;;;;;;64.45;37.47;;;;;;;0.73;100.00;102180.41;4994691;28;20026;-53
2022/01/16 06:15:34;;;;;;;65.28;35.65;;;;;;;0.73;100.00;102177.69;4994700;28;20497;-52
2022/01/16 06:18:00;;;;;;;60.53;33.70;;;;;;;0.77;100.00;102178.97;4993311;28;20027;-53
2022/01/16 06:20:26;;;;;;;64.43;35.30;;;;;;;0.78;100.00;102178.75;4994079;28;20030;-48
2022/01/16 06:22:53;;;;;;;64.22;35.33;;;;;;;0.75;100.00;102181.91;4992771;28;20033;-51
2022/01/16 06:25:19;;;;;;;66.40;38.35;;;;;;;0.81;100.00;102184.84;4994766;28;20497;-51
2022/01/16 06:27:44;;;;;;;64.72;35.45;;;;;;;0.83;100.00;102183.59;4993796;28;20030;-53
2022/01/16 06:30:10;;;;;;;79.97;39.40;;;;;;;0.87;100.00;102193.03;4994026;28;20073;-50
2022/01/16 06:32:36;;;;;;;67.43;36.60;;;;;;;0.88;100.00;102192.00;4993601;28;20029;-51
2022/01/16 06:35:02;;;;;;;69.78;38.53;;;;;;;0.92;100.00;102189.69;4994726;28;20023;-52
2022/01/16 06:37:27;;;;;;;67.20;37.42;;;;;;;1.00;100.00;102197.66;4993861;28;20030;-54
2022/01/16 06:39:52;;;;;;;56.22;31.58;;;;;;;1.04;100.00;102201.63;4993545;28;20483;-52
2022/01/16 06:42:18;;;;;;;70.65;38.58;;;;;;;1.06;100.00;102204.97;4993891;28;20034;-51
2022/01/16 06:44:43;;;;;;;61.58;33.33;;;;;;;1.09;100.00;102217.34;4994187;28;20093;-51
2022/01/16 06:47:08;;;;;;;66.20;39.00;;;;;;;1.11;100.00;102206.25;4994120;28;20430;-55
2022/01/16 06:49:34;;;;;;;65.35;36.47;;;;;;;1.07;100.00;102214.84;4993487;28;20077;-52
2022/01/16 06:51:59;;;;;;;65.43;37.83;;;;;;;1.13;100.00;102210.44;4994033;28;20081;-54
2022/01/16 06:54:25;;;;;;;61.22;36.53;;;;;;;1.19;100.00;102219.69;4993754;28;20507;-54
2022/01/16 06:56:50;;;;;;;71.60;39.40;;;;;;;1.21;100.00;102223.03;4993715;28;20062;-54
2022/01/16 06:59:15;;;;;;;67.72;37.83;;;;;;;1.26;100.00;102223.22;4991951;28;20096;-54
2022/01/16 07:01:40;;;;;;;69.45;40.00;;;;;;;1.29;100.00;102220.09;4993541;28;20029;-55
2022/01/16 07:04:06;;;;;;;66.72;37.92;;;;;;;1.37;100.00;102221.78;4993704;28;20034;-52
2022/01/16 07:06:31;;;;;;;67.45;36.60;;;;;;;1.38;100.00;102227.03;4993323;28;20034;-54
2022/01/16 07:08:56;;;;;;;62.00;34.67;;;;;;;1.42;100.00;102229.34;4993345;28;20030;-52
2022/01/16 07:11:21;;;;;;;62.13;35.33;;;;;;;1.45;100.00;102228.91;4993752;28;20023;-51
2022/01/16 07:13:47;;;;;;;65.30;35.85;;;;;;;1.53;100.00;102236.84;4993696;28;20022;-54
2022/01/16 07:16:12;;;;;;;69.05;37.38;;;;;;;1.52;100.00;102225.13;4993305;28;20030;-53
2022/01/16 07:18:37;;;;;;;56.53;31.75;;;;;;;1.58;100.00;102244.41;4993801;28;20394;-52
2022/01/16 07:21:05;;;;;;;66.78;36.00;;;;;;;1.60;100.00;102250.50;4993151;28;20496;-53
2022/01/16 07:23:30;;;;;;;67.82;36.03;;;;;;;1.63;100.00;102261.81;4993185;28;20498;-55
2022/01/16 07:25:55;;;;;;;58.45;32.55;;;;;;;1.63;100.00;102261.81;4993439;28;20120;-54
2022/01/16 07:28:21;;;;;;;61.65;33.97;;;;;;;1.71;100.00;102266.22;4993033;28;20026;-51
2022/01/16 07:30:47;;;;;;;62.67;33.33;;;;;;;1.74;100.00;102276.72;4993419;28;20041;-53
2022/01/16 07:33:13;;;;;;;60.72;33.83;;;;;;;1.81;100.00;102271.25;4993404;28;20478;-53
2022/01/16 07:35:38;;;;;;;58.53;33.80;;;;;;;1.81;100.00;102276.69;4993086;28;20041;-54
2022/01/16 07:38:06;;;;;;;59.63;33.28;;;;;;;1.84;100.00;102287.19;4992878;28;20103;-54
2022/01/16 07:40:32;;;;;;;56.38;32.60;;;;;;;1.87;100.00;102290.34;4993205;28;20053;-53
2022/01/16 07:42:59;;;;;;;53.75;31.67;;;;;;;1.87;100.00;102289.53;4993162;28;20030;-53
2022/01/16 07:45:25;;;;;;;54.33;32.20;;;;;;;1.85;100.00;102286.97;4993306;28;20181;-55
2022/01/16 07:47:50;;;;;;;52.65;32.20;;;;;;;1.86;100.00;102287.84;4993621;28;20537;-55
2022/01/16 07:50:16;;;;;;;52.90;31.10;;;;;;;1.89;100.00;102294.75;4993519;28;20034;-55
2022/01/16 07:52:42;;;;;;;51.83;31.05;;;;;;;1.92;100.00;102297.06;4993721;28;20422;-55
2022/01/16 07:55:08;;;;;;;53.03;30.55;;;;;;;1.94;100.00;102292.22;4993569;28;20034;-55
2022/01/16 07:57:33;;;;;;;49.30;29.02;;;;;;;1.99;100.00;102300.63;4993571;28;20050;-52
2022/01/16 07:59:58;;;;;;;54.15;29.55;;;;;;;1.99;100.00;102312.38;4993549;28;20026;-54
2022/01/16 08:02:24;;;;;;;54.63;31.08;;;;;;;2.03;100.00;102316.38;4993456;28;20081;-52
2022/01/16 08:04:49;;;;;;;49.88;29.48;;;;;;;2.09;100.00;102320.13;4992844;28;20367;-53
2022/01/16 08:07:14;;;;;;;52.78;30.38;;;;;;;2.11;100.00;102320.78;4992254;28;20036;-53
2022/01/16 08:09:40;;;;;;;51.47;30.60;;;;;;;2.12;100.00;102324.31;4993569;28;20022;-53
2022/01/16 08:12:07;;;;;;;49.10;29.15;;;;;;;2.13;100.00;102323.28;4994624;28;20092;-53
2022/01/16 08:14:32;;;;;;;49.38;28.17;;;;;;;2.15;100.00;102302.06;4997430;28;20031;-53
2022/01/16 08:16:58;;;;;;;48.35;28.20;;;;;;;2.23;99.81;102306.44;4997257;28;20026;-54
2022/01/16 08:19:24;;;;;;;48.22;27.80;;;;;;;2.23;99.91;102315.47;4996662;28;20089;-51
2022/01/16 08:21:50;;;;;;;51.78;30.33;;;;;;;2.23;100.00;102314.63;4995405;28;20042;-51
2022/01/16 08:24:15;;;;;;;52.67;30.60;;;;;;;2.18;100.00;102312.53;4996569;28;20068;-51
2022/01/16 08:26:40;;;;;;;50.50;29.63;;;;;;;2.23;100.00;102296.38;4996583;28;20030;-55
2022/01/16 08:29:05;;;;;;;46.55;26.52;;;;;;;2.32;99.80;102296.97;4996372;28;20068;-52
2022/01/16 08:31:31;;;;;;;48.03;27.85;;;;;;;2.32;100.00;102295.09;4996161;28;20022;-54
2022/01/16 08:33:56;;;;;;;48.58;26.55;;;;;;;2.32;100.00;102303.28;4996230;28;20030;-51
2022/01/16 08:36:21;;;;;;;52.15;27.98;;;;;;;2.37;100.00;102285.38;4996975;28;20126;-52
2022/01/16 08:38:47;;;;;;;48.58;27.65;;;;;;;2.34;100.00;102297.59;4996616;28;20117;-54
2022/01/16 08:41:12;;;;;;;51.40;29.52;;;;;;;2.42;100.00;102297.34;4996456;28;20026;-55
2022/01/16 08:43:37;;;;;;;47.92;27.60;;;;;;;2.43;100.00;102306.41;4996382;28;20026;-54
2022/01/16 08:46:03;;;;;;;48.65;28.77;;;;;;;2.47;100.00;102296.69;4996473;28;20031;-51
2022/01/16 08:48:28;;;;;;;51.55;29.20;;;;;;;2.48;100.00;102304.69;4996450;28;20540;-52
2022/01/16 08:50:54;;;;;;;47.50;26.98;;;;;;;2.48;100.00;102306.56;4996622;28;20042;-52
2022/01/16 08:53:20;;;;;;;50.63;28.95;;;;;;;2.51;100.00;102306.16;4995411;28;20052;-54
2022/01/16 08:55:45;;;;;;;53.65;29.25;;;;;;;2.54;100.00;102307.59;4995566;28;20489;-53
2022/01/16 08:58:11;;;;;;;51.05;29.65;;;;;;;2.53;100.00;102325.06;4995591;28;20030;-51
2022/01/16 09:00:36;;;;;;;52.10;28.30;;;;;;;2.55;100.00;102318.31;4995507;28;20061;-53
2022/01/16 09:03:02;;;;;;;45.92;25.98;;;;;;;2.60;100.00;102323.97;4995736;28;20031;-49
2022/01/16 09:05:27;;;;;;;51.45;28.52;;;;;;;2.63;100.00;102325.44;4996240;28;20108;-50
2022/01/16 09:07:53;;;;;;;50.75;28.15;;;;;;;2.62;100.00;102330.06;4996620;28;20473;-49
2022/01/16 09:10:19;;;;;;;52.88;27.95;;;;;;;2.65;100.00;102335.09;4996353;28;20375;-50
2022/01/16 09:12:44;;;;;;;53.25;28.50;;;;;;;2.68;100.00;102332.97;4996109;28;20030;-51
2022/01/16 09:15:10;;;;;;;53.97;28.70;;;;;;;2.70;100.00;102334.44;4995839;28;20026;-50
2022/01/16 09:17:37;;;;;;;49.83;29.38;;;;;;;2.71;100.00;102336.13;4995728;28;20041;-53
2022/01/16 09:20:05;;;;;;;53.35;27.50;;;;;;;2.75;100.00;102336.53;4995879;28;20042;-52
2022/01/16 09:22:30;;;;;;;52.13;28.60;;;;;;;2.73;100.00;102344.94;4985074;28;20039;-51
2022/01/16 09:24:55;;;;;;;48.42;27.20;;;;;;;2.80;100.00;102339.47;4974435;28;20041;-50
2022/01/16 09:27:21;;;;;;;48.47;28.35;;;;;;;2.87;99.84;102347.63;4974464;28;20031;-50
2022/01/16 09:29:46;;;;;;;53.40;27.77;;;;;;;2.94;100.00;102345.69;4974389;28;20030;-52
2022/01/16 09:32:13;;;;;;;53.90;28.83;;;;;;;2.93;99.94;102354.97;4984172;28;20057;-52
2022/01/16 09:34:39;;;;;;;59.50;29.52;;;;;;;2.97;100.00;102361.69;4993218;28;20038;-49
2022/01/16 09:37:08;;;;;;;50.05;27.38;;;;;;;3.02;99.73;102361.03;4992875;28;20489;-50
2022/01/16 09:39:37;;;;;;;52.08;28.00;;;;;;;3.10;99.39;102366.25;4993172;28;20393;-51
2022/01/16 09:42:03;;;;;;;57.78;28.77;;;;;;;3.13;99.43;102363.06;4993106;28;20033;-51
2022/01/16 09:44:29;;;;;;;51.45;28.15;;;;;;;3.12;99.34;102370.44;4993208;28;20030;-50
2022/01/16 09:46:54;;;;;;;55.95;30.17;;;;;;;3.13;99.56;102376.72;4992534;28;20036;-52
2022/01/16 09:49:19;;;;;;;57.17;30.92;;;;;;;3.11;99.80;102368.75;4991787;28;20532;-50
2022/01/16 09:51:45;;;;;;;58.40;30.77;;;;;;;3.18;98.93;102371.47;4992938;28;20486;-50
2022/01/16 09:54:10;;;;;;;58.30;31.35;;;;;;;3.22;98.84;102367.22;4992798;28;20102;-51
2022/01/16 09:56:36;;;;;;;59.25;30.15;;;;;;;3.23;99.34;102371.63;4992839;28;20149;-50
2022/01/16 09:59:01;;;;;;;68.00;33.88;;;;;;;3.26;99.34;102375.81;4992966;28;20053;-50
2022/01/16 10:01:26;;;;;;;64.47;31.05;;;;;;;3.32;98.53;102379.56;4992771;28;20396;-49
2022/01/16 10:03:52;;;;;;;63.47;32.92;;;;;;;3.35;98.95;102390.94;4991019;28;20030;-51
2022/01/16 10:06:20;;;;;;;63.13;31.98;;;;;;;3.40;98.45;102388.38;4992769;28;20034;-53
2022/01/16 10:08:48;;;;;;;59.40;30.15;;;;;;;3.46;98.04;102403.06;4993215;28;20030;-50
2022/01/16 10:11:24;;;;;;;69.88;33.83;;;;;;;3.48;98.87;102400.97;4992806;28;20034;-51
2022/01/16 10:13:58;;;;;;;66.72;32.22;;;;;;;3.53;98.51;102398.38;4992506;28;20049;-54
2022/01/16 10:16:27;;;;;;;;;;;;;;;3.73;97.37;102405.63;4993354;28;20465;-49
2022/01/16 10:18:53;;;;;;;68.85;33.05;;;;;;;3.61;97.67;102405.50;4991507;28;19913;-50
2022/01/16 10:21:50;;;;;;;71.53;31.33;;;;;;;3.63;98.38;102408.00;4994493;28;20394;-53
2022/01/16 10:24:28;;;;;;;65.88;32.67;;;;;;;3.65;98.27;102414.09;4950345;28;20038;-53
2022/01/16 10:27:08;;;;;;;63.17;31.30;;;;;;;3.72;98.54;102417.63;4994931;28;20027;-50
2022/01/16 10:29:37;;;;;;;67.78;31.38;;;;;;;3.77;98.01;102415.09;4994194;28;20548;-53
2022/01/16 10:32:19;;;;;;;76.20;35.05;;;;;;;3.81;97.53;102418.22;4994690;28;20054;-53
2022/01/16 10:34:47;;;;;;;74.35;31.48;;;;;;;3.73;97.72;102398.25;4993717;28;20026;-53
2022/01/16 10:37:24;;;;;;;78.18;33.50;;;;;;;3.83;97.61;102414.19;4994169;28;20026;-51
2022/01/16 10:40:19;;;;;;;71.60;34.65;;;;;;;3.90;97.49;102414.16;4994646;28;20105;-53
2022/01/16 10:42:53;;;;;;;69.28;30.83;;;;;;;3.94;96.98;102423.56;4993584;28;20117;-52
2022/01/16 10:45:21;;;;;;;;;;;;;;;4.03;96.84;102424.16;4994540;28;20401;-51
2022/01/16 10:47:54;;;;;;;66.88;31.80;;;;;;;4.00;96.17;102410.91;4994359;28;19983;-53
2022/01/16 10:50:22;;;;;;;65.85;28.70;;;;;;;4.08;96.35;102420.75;4994671;28;20030;-54
2022/01/16 10:52:54;;;;;;;71.35;30.45;;;;;;;4.15;96.73;102416.88;4992843;28;20038;-53
2022/01/16 10:55:24;;;;;;;57.43;26.03;;;;;;;4.15;96.08;102408.69;4993439;28;20486;-53
2022/01/16 10:57:58;;;;;;;67.90;32.47;;;;;;;4.26;95.80;102423.53;4994655;28;20133;-54
2022/01/16 11:00:24;;;;;;;64.20;31.88;;;;;;;4.31;95.39;102420.13;4994107;28;20076;-50
2022/01/16 11:02:51;;;;;;;71.97;30.73;;;;;;;4.18;95.69;102402.72;4994038;28;20050;-49
2022/01/16 11:05:19;;;;;;;62.88;30.00;;;;;;;4.27;94.71;102419.72;4994172;28;20445;-52
2022/01/16 11:07:45;;;;;;;59.97;29.23;;;;;;;4.30;94.97;102424.75;4993761;28;20081;-53
2022/01/16 11:10:26;;;;;;;65.28;29.52;;;;;;;4.25;95.10;102423.75;4994051;28;20465;-52
2022/01/16 11:12:54;;;;;;;66.43;30.83;;;;;;;4.20;95.47;102428.00;4994081;28;20514;-51
2022/01/16 11:15:19;;;;;;;71.13;34.78;;;;;;;4.20;95.53;102421.69;4993588;28;20035;-51
2022/01/16 11:17:45;;;;;;;67.53;30.88;;;;;;;4.18;95.49;102427.38;4993822;28;20030;-54
2022/01/16 11:20:10;;;;;;;66.60;29.77;;;;;;;4.29;94.82;102424.97;4993872;28;20053;-52
2022/01/16 11:22:56;;;;;;;66.43;31.00;;;;;;;4.28;95.49;102431.50;4993833;28;20038;-52
2022/01/16 11:25:31;;;;;;;62.78;28.52;;;;;;;4.39;94.54;102421.75;4993907;28;20037;-52
2022/01/16 11:27:58;;;;;;;67.75;32.42;;;;;;;4.34;95.20;102422.41;4993851;28;20037;-53
2022/01/16 11:30:24;;;;;;;67.35;32.03;;;;;;;4.40;95.47;102426.13;4993298;28;20038;-54
2022/01/16 11:32:50;;;;;;;66.20;31.20;;;;;;;4.42;95.09;102427.59;4993873;28;20031;-52
2022/01/16 11:35:16;;;;;;;66.75;31.77;;;;;;;4.44;95.18;102432.84;4993424;28;20026;-51
2022/01/16 11:37:42;;;;;;;61.92;30.55;;;;;;;4.42;95.09;102432.22;4993447;28;20041;-51
2022/01/16 11:40:19;;;;;;;65.18;31.85;;;;;;;4.43;95.16;102426.53;4993697;28;20019;-54
2022/01/16 11:42:44;;;;;;;64.90;31.17;;;;;;;4.46;95.14;102431.56;4993071;28;20096;-53
2022/01/16 11:45:09;;;;;;;67.03;31.92;;;;;;;4.45;95.49;102423.56;4993834;28;20470;-55
2022/01/16 11:47:35;;;;;;;75.57;34.08;;;;;;;4.43;95.36;102431.16;4993109;28;20449;-53
2022/01/16 11:50:10;;;;;;;66.25;31.77;;;;;;;4.47;95.59;102429.66;4993416;28;20077;-54
2022/01/16 11:52:41;;;;;;;66.72;32.63;;;;;;;4.40;95.93;102426.97;4993207;28;20058;-54